createdAt,value
2023-04-16T00:00:53.105Z,95.9972
2023-04-16T00:01:53.850Z,95.7255
2023-04-16T00:02:54.657Z,95.6691
2023-04-16T00:03:55.935Z,95.7955
2023-04-16T00:04:56.746Z,95.8408
2023-04-16T00:05:57.358Z,95.9512
2023-04-16T00:06:58.051Z,96.0245
2023-04-16T00:07:58.662Z,96.0732
2023-04-16T00:08:59.323Z,96.1327
2023-04-16T00:10:00.008Z,96.0639
2023-04-16T00:11:00.673Z,96.0826
2023-04-16T00:12:01.332Z,96.0938
2023-04-16T00:13:02.053Z,96.1575
2023-04-16T00:14:02.663Z,96.1768
2023-04-16T00:15:03.332Z,96.2228
2023-04-16T00:16:03.994Z,96.3298
2023-04-16T00:17:04.736Z,96.3220
2023-04-16T00:18:05.459Z,96.2636
2023-04-16T00:19:06.133Z,96.2536
2023-04-16T00:20:06.775Z,96.1323
2023-04-16T00:21:07.441Z,95.7884
2023-04-16T00:22:08.117Z,95.6510
2023-04-16T00:23:08.814Z,95.6587
2023-04-16T00:24:09.451Z,95.6729
2023-04-16T00:25:10.100Z,95.6812
2023-04-16T00:26:10.739Z,95.6657
2023-04-16T00:27:11.722Z,95.6208
2023-04-16T00:28:12.337Z,95.6027
2023-04-16T00:29:13.003Z,95.6958
2023-04-16T00:30:13.623Z,95.7543
2023-04-16T00:31:14.568Z,95.7749
2023-04-16T00:32:15.248Z,95.8370
2023-04-16T00:33:15.900Z,95.9031
2023-04-16T00:34:18.408Z,95.9688
2023-04-16T00:35:19.066Z,96.0070
2023-04-16T00:36:19.943Z,96.1383
2023-04-16T00:37:20.570Z,96.2414
2023-04-16T00:38:21.230Z,96.3150
2023-04-16T00:39:21.999Z,96.3024
2023-04-16T00:40:22.683Z,96.2248
2023-04-16T00:41:23.298Z,96.1272
2023-04-16T00:42:23.994Z,96.0254
2023-04-16T00:43:24.636Z,96.1398
2023-04-16T00:44:25.297Z,96.1205
2023-04-16T00:45:25.956Z,96.0710
2023-04-16T00:46:26.680Z,96.1606
2023-04-16T00:47:27.310Z,96.1195
2023-04-16T00:48:28.017Z,96.1204
2023-04-16T00:49:28.646Z,96.1811
2023-04-16T00:50:29.314Z,96.3785
2023-04-16T00:51:29.997Z,97.6520
2023-04-16T00:52:30.621Z,97.9282
2023-04-16T00:53:31.295Z,97.9533
2023-04-16T00:54:31.959Z,97.9180
2023-04-16T00:55:32.633Z,97.9041
2023-04-16T00:56:33.278Z,97.8317
2023-04-16T00:57:33.981Z,97.8074
2023-04-16T00:58:34.643Z,97.8014
2023-04-16T00:59:35.288Z,97.7666
2023-04-16T01:00:35.933Z,97.7622
2023-04-16T01:01:36.616Z,97.7642
2023-04-16T01:02:37.336Z,97.7494
2023-04-16T01:03:38.179Z,97.7544
2023-04-16T01:04:38.877Z,97.7624
2023-04-16T01:05:39.544Z,97.7591
2023-04-16T01:06:40.260Z,97.7577
2023-04-16T01:07:40.904Z,97.7632
2023-04-16T01:08:41.534Z,97.7660
2023-04-16T01:09:42.208Z,97.7701
2023-04-16T01:10:42.872Z,97.7838
2023-04-16T01:11:43.493Z,97.7813
2023-04-16T01:12:44.130Z,97.7832
2023-04-16T01:13:44.778Z,97.7839
2023-04-16T01:14:45.878Z,97.7971
2023-04-16T01:15:46.530Z,97.7989
2023-04-16T01:16:47.184Z,97.8086
2023-04-16T01:17:47.856Z,97.8003
2023-04-16T01:18:48.483Z,97.8111
2023-04-16T01:19:49.173Z,97.8117
2023-04-16T01:20:49.870Z,97.8015
2023-04-16T01:21:50.550Z,97.7803
2023-04-16T01:22:51.254Z,97.7809
2023-04-16T01:23:51.928Z,97.7642
2023-04-16T01:24:52.666Z,97.7394
2023-04-16T01:25:53.365Z,97.7266
2023-04-16T01:26:54.047Z,97.7209
2023-04-16T01:27:54.728Z,97.7093
2023-04-16T01:28:55.400Z,97.6987
2023-04-16T01:29:56.092Z,97.6996
2023-04-16T01:30:56.799Z,97.6844
2023-04-16T01:31:57.468Z,97.6697
2023-04-16T01:32:58.200Z,97.6660
2023-04-16T01:33:59.118Z,97.6455
2023-04-16T01:34:59.818Z,97.6613
2023-04-16T01:36:00.587Z,97.6569
2023-04-16T01:37:01.419Z,97.6272
2023-04-16T01:38:02.091Z,97.5915
2023-04-16T01:39:02.764Z,97.5227
2023-04-16T01:40:03.453Z,97.4891
2023-04-16T01:41:04.163Z,97.4061
2023-04-16T01:42:04.897Z,97.2766
2023-04-16T01:43:05.603Z,97.1047
2023-04-16T01:44:06.297Z,96.9690
2023-04-16T01:45:06.979Z,96.8001
2023-04-16T01:46:07.682Z,96.6742
2023-04-16T01:47:08.362Z,96.5431
2023-04-16T01:48:09.079Z,96.2891
2023-04-16T01:49:09.949Z,96.0998
2023-04-16T01:50:10.700Z,96.0552
2023-04-16T01:51:11.658Z,95.9906
2023-04-16T01:52:12.331Z,95.9394
2023-04-16T01:53:13.012Z,95.8776
2023-04-16T01:54:13.686Z,95.8766
2023-04-16T01:55:14.404Z,95.8597
2023-04-16T01:56:15.106Z,95.8469
2023-04-16T01:57:15.776Z,95.8600
2023-04-16T01:58:16.439Z,95.9291
2023-04-16T01:59:17.358Z,95.8930
2023-04-16T02:00:18.043Z,95.7818
2023-04-16T02:01:18.809Z,95.8659
2023-04-16T02:02:19.575Z,95.9829
2023-04-16T02:03:20.419Z,96.1003
2023-04-16T02:04:21.144Z,96.0940
2023-04-16T06:48:58.668Z,96.0682
2023-04-16T06:48:58.668Z,96.2448
2023-04-16T06:49:52.696Z,96.8144
2023-04-16T06:50:53.493Z,96.8236
2023-04-16T06:51:54.167Z,96.8744
2023-04-16T06:52:54.856Z,96.9680
2023-04-16T06:53:55.659Z,97.0170
2023-04-16T06:54:56.407Z,97.0341
2023-04-16T06:55:57.227Z,97.0308
2023-04-16T06:56:58.150Z,97.0410
2023-04-16T06:57:58.771Z,97.0452
2023-04-16T06:58:59.452Z,97.0761
2023-04-16T07:00:00.243Z,97.1519
2023-04-16T07:01:00.995Z,97.2271
2023-04-16T07:02:01.873Z,97.3200
2023-04-16T07:03:03.130Z,97.3540
2023-04-16T07:04:04.041Z,97.3895
2023-04-16T07:05:04.852Z,97.3276
2023-04-16T07:06:05.532Z,97.2808
2023-04-16T07:07:06.238Z,97.2544
2023-04-16T07:08:06.951Z,97.1395
2023-04-16T07:09:07.788Z,97.0156
2023-04-16T07:10:08.555Z,96.7660
2023-04-16T07:11:09.262Z,96.6399
2023-04-16T07:12:09.933Z,96.7200
2023-04-16T07:13:10.864Z,96.8159
2023-04-16T07:14:11.746Z,96.9231
2023-04-16T07:15:12.418Z,96.8595
2023-04-16T07:16:13.469Z,96.8718
2023-04-16T07:17:14.145Z,96.8581
2023-04-16T07:18:14.848Z,96.8329
2023-04-16T07:19:15.547Z,96.8783
2023-04-16T07:20:16.262Z,96.9279
2023-04-16T07:21:17.478Z,97.0292
2023-04-16T07:22:18.114Z,96.9214
2023-04-16T07:23:18.820Z,96.8128
2023-04-16T07:24:19.570Z,96.8396
2023-04-16T07:25:20.252Z,96.8855
2023-04-16T07:26:20.929Z,96.8892
2023-04-16T07:27:21.751Z,96.7392
2023-04-16T07:28:22.410Z,96.6505
2023-04-16T07:29:23.290Z,96.5906
2023-04-16T07:30:24.098Z,96.3112
2023-04-16T07:31:24.835Z,96.2438
2023-04-16T07:32:25.626Z,96.3017
2023-04-16T07:33:26.559Z,96.2535
2023-04-16T07:34:27.293Z,96.3728
2023-04-16T07:35:27.982Z,96.4580
2023-04-16T07:36:28.646Z,96.5894
2023-04-16T07:37:29.369Z,96.6737
2023-04-16T07:38:30.026Z,96.7253
2023-04-16T07:39:30.717Z,96.7165
2023-04-16T07:40:31.427Z,96.5487
2023-04-16T07:41:32.367Z,96.4583
2023-04-16T07:42:33.035Z,96.2284
2023-04-16T07:47:58.135Z,96.1044
2023-04-16T07:47:58.135Z,96.1422
2023-04-16T07:48:51.853Z,95.5603
2023-04-16T07:49:52.769Z,95.0826
2023-04-16T07:50:53.455Z,95.2980
2023-04-16T07:51:54.381Z,95.4265
2023-04-16T07:52:55.242Z,95.0868
2023-04-16T07:53:56.000Z,95.1545
2023-04-16T07:54:56.859Z,95.4261
2023-04-16T07:55:57.732Z,95.5447
2023-04-16T07:56:58.478Z,95.7095
2023-04-16T07:57:59.689Z,95.7960
2023-04-16T07:59:07.833Z,95.8141
2023-04-16T08:00:03.738Z,95.5502
2023-04-16T08:01:04.420Z,95.2947
2023-04-16T08:02:05.186Z,95.6904
2023-04-16T08:03:06.011Z,95.6703
2023-04-16T08:04:07.087Z,94.9400
2023-04-16T08:05:07.865Z,94.8153
2023-04-16T08:06:08.568Z,95.2058
2023-04-16T08:07:09.241Z,95.2130
2023-04-16T08:08:11.457Z,95.4200
2023-04-16T08:09:12.294Z,95.3239
2023-04-16T08:10:13.043Z,95.4907
2023-04-16T08:11:13.848Z,95.0138
2023-04-16T08:12:14.546Z,95.0511
2023-04-16T08:18:09.950Z,94.4961
2023-04-16T08:18:09.950Z,95.1548
2023-04-16T08:19:10.970Z,95.2902
2023-04-16T08:20:15.060Z,94.4551
2023-04-16T08:21:15.328Z,94.6850
2023-04-16T08:22:16.305Z,95.0217
2023-04-16T08:23:17.208Z,95.3274
2023-04-16T08:24:17.918Z,94.7006
2023-04-16T08:25:18.605Z,94.7958
2023-04-16T08:26:19.561Z,94.7728
2023-04-16T08:27:20.502Z,94.4400
2023-04-16T08:28:21.230Z,94.8632
2023-04-16T08:29:22.388Z,94.4622
2023-04-16T08:30:23.064Z,94.4177
2023-04-16T08:31:23.836Z,94.4122
2023-04-16T08:32:24.637Z,94.5157
2023-04-16T08:33:25.636Z,94.5022
2023-04-16T08:34:26.368Z,94.6190
2023-04-16T08:35:27.112Z,95.2396
2023-04-16T08:36:27.853Z,95.3073
2023-04-16T08:37:28.542Z,95.2391
2023-04-16T08:38:29.505Z,94.9741
2023-04-16T08:39:30.183Z,95.0353
2023-04-16T08:40:30.950Z,95.1829
2023-04-16T08:41:31.648Z,95.4332
2023-04-16T08:42:32.394Z,94.9103
2023-04-16T08:43:33.093Z,95.1554
2023-04-16T08:44:33.808Z,95.2519
2023-04-16T08:45:34.565Z,95.3126
2023-04-16T08:46:35.311Z,95.0024
2023-04-16T08:47:36.019Z,93.9811
2023-04-16T08:48:36.727Z,93.6167
2023-04-16T08:49:37.434Z,93.4621
2023-04-16T08:50:38.406Z,93.5509
2023-04-16T08:51:39.225Z,93.7298
2023-04-16T08:52:39.912Z,94.1273
2023-04-16T08:53:40.738Z,94.4168
2023-04-16T08:54:41.496Z,93.7555
2023-04-16T08:55:42.289Z,93.9712
2023-04-16T11:00:38.375Z,94.3145
2023-04-16T11:00:38.375Z,94.3691
2023-04-16T11:26:09.643Z,94.2000
2023-04-16T11:26:09.643Z,93.7240
2023-04-16T11:41:49.429Z,93.0373
2023-04-16T11:41:49.429Z,93.2326
2023-04-16T11:42:20.271Z,94.1222
2023-04-16T11:43:21.076Z,94.4044
2023-04-16T11:44:21.949Z,94.3703
2023-04-16T11:45:22.931Z,94.5177
2023-04-16T11:46:27.841Z,94.8294
2023-04-16T11:47:25.994Z,94.9397
2023-04-16T11:48:26.917Z,95.0146
2023-04-16T11:49:27.715Z,95.2094
2023-04-16T11:50:28.533Z,95.1537
2023-04-16T11:51:29.368Z,95.1055
2023-04-16T11:52:30.239Z,95.0022
2023-04-16T11:53:31.052Z,94.8100
2023-04-16T11:54:31.819Z,94.8022
2023-04-16T11:55:32.623Z,94.8131
2023-04-16T11:56:33.469Z,94.9294
2023-04-16T11:57:35.782Z,94.7741
2023-04-16T11:58:36.821Z,94.6743
2023-04-16T11:59:36.751Z,94.7945
2023-04-16T12:00:38.351Z,94.7516
2023-04-16T12:01:40.777Z,94.6325
2023-04-16T12:02:43.403Z,94.3879
2023-04-16T12:03:46.066Z,94.4612
2023-04-16T12:42:25.168Z,93.9529
2023-04-16T12:42:25.168Z,93.9590
2023-04-16T13:08:26.719Z,93.2799
2023-04-16T13:08:26.719Z,92.9259
2023-04-16T13:08:57.038Z,92.2942
2023-04-16T13:09:57.797Z,93.2861
2023-04-16T13:10:58.601Z,93.6638
2023-04-16T13:11:59.401Z,94.0922
2023-04-16T13:13:00.258Z,94.2194
2023-04-16T13:14:01.086Z,93.8447
2023-04-16T13:15:02.193Z,93.5445
2023-04-16T13:16:02.973Z,92.8756
2023-04-16T13:17:03.769Z,92.8236
2023-04-16T13:18:04.642Z,92.5588
2023-04-16T13:19:05.440Z,92.5160
2023-04-16T13:20:06.205Z,92.4268
2023-04-16T13:21:07.003Z,92.7979
2023-04-16T13:22:08.589Z,93.3063
2023-04-16T13:23:09.367Z,93.5720
2023-04-16T13:24:10.123Z,93.8348
2023-04-16T13:25:10.873Z,94.1795
2023-04-16T13:26:11.597Z,93.8069
2023-04-16T13:27:12.364Z,93.7618
2023-04-16T13:28:13.106Z,94.0923
2023-04-16T13:29:13.853Z,94.1396
2023-04-16T13:30:14.587Z,93.8560
2023-04-16T13:31:15.388Z,93.0758
2023-04-16T13:32:16.113Z,93.3686
2023-04-16T13:33:16.978Z,93.4725
2023-04-16T13:34:17.719Z,93.5666
2023-04-16T13:35:18.445Z,92.7274
2023-04-16T13:36:19.220Z,91.5512
2023-04-16T13:37:19.951Z,92.5190
2023-04-16T13:38:20.719Z,92.7051
2023-04-16T13:39:21.617Z,92.2605
2023-04-16T13:40:22.295Z,91.8633
2023-04-16T13:41:23.066Z,92.1673
2023-04-16T13:42:24.142Z,92.1982
2023-04-16T13:43:24.909Z,92.3055
2023-04-16T13:44:25.656Z,92.3827
2023-04-16T13:45:26.414Z,92.4269
2023-04-16T13:46:27.147Z,91.7094
2023-04-16T13:47:27.889Z,91.4579
2023-04-16T13:48:28.688Z,91.1895
2023-04-16T13:49:29.743Z,91.5667
2023-04-16T13:50:30.555Z,92.2665
2023-04-16T13:51:32.132Z,92.0273
2023-04-16T13:52:32.929Z,92.4050
2023-04-16T13:53:33.745Z,92.1877
2023-04-16T13:54:34.737Z,92.2379
2023-04-16T13:55:35.605Z,91.8739
2023-04-16T13:56:36.405Z,91.9938
2023-04-16T13:57:37.198Z,92.6154
2023-04-16T13:58:38.570Z,93.0045
2023-04-16T13:59:40.573Z,92.4115
2023-04-16T14:00:41.413Z,92.4409
2023-04-16T14:01:42.218Z,92.5132
2023-04-16T14:02:43.176Z,92.4369
2023-04-16T14:03:44.364Z,92.1819
2023-04-16T14:04:45.555Z,92.2646
2023-04-16T14:05:47.133Z,92.7748
2023-04-16T14:06:48.508Z,93.0258
2023-04-16T14:07:49.567Z,93.0544
2023-04-16T14:08:50.383Z,93.4268
2023-04-16T14:09:51.156Z,93.6108
2023-04-16T14:10:52.638Z,93.6034
2023-04-16T14:11:54.656Z,93.3195
2023-04-16T14:12:55.391Z,93.4432
2023-04-16T14:13:56.234Z,93.1521
2023-04-16T14:14:57.009Z,93.3442
2023-04-16T14:15:57.869Z,93.0223
2023-04-16T14:16:59.669Z,93.2471
2023-04-16T14:18:00.660Z,93.2669
2023-04-16T14:19:01.571Z,93.0416
2023-04-16T14:20:03.025Z,92.8658
2023-04-16T14:21:03.736Z,93.0556
2023-04-16T14:22:04.576Z,93.1288
2023-04-16T14:23:05.305Z,93.1822
2023-04-16T14:24:06.063Z,93.5126
2023-04-16T14:25:06.815Z,93.6049
2023-04-16T14:26:07.641Z,94.1129
2023-04-16T14:27:08.507Z,93.9605
2023-04-16T14:28:09.298Z,93.7063
2023-04-16T14:29:10.741Z,93.9357
2023-04-16T14:30:11.638Z,93.9811
2023-04-16T14:31:12.520Z,94.0287
2023-04-16T14:32:13.775Z,94.1175
2023-04-16T14:33:14.540Z,94.2256
2023-04-16T14:34:15.553Z,94.2122
2023-04-16T14:35:16.300Z,94.4303
2023-04-16T14:36:17.233Z,94.2893
2023-04-16T14:37:17.983Z,94.1600
2023-04-16T14:38:18.850Z,94.3762
2023-04-16T14:39:19.647Z,94.3481
2023-04-16T14:40:20.615Z,94.3631
2023-04-16T14:41:21.466Z,94.4159
2023-04-16T14:42:22.257Z,94.1455
2023-04-16T14:43:23.554Z,94.2027
2023-04-16T14:44:25.087Z,94.1682
2023-04-16T14:45:25.886Z,93.8854
2023-04-16T14:46:26.655Z,94.0326
2023-04-16T14:47:27.413Z,94.2614
2023-04-16T14:48:28.235Z,94.0833
2023-04-16T14:49:29.079Z,93.9384
2023-04-16T14:50:30.117Z,93.0633
2023-04-16T14:51:30.919Z,93.3379
2023-04-16T14:52:31.774Z,93.6268
2023-04-16T14:53:32.694Z,93.9607
2023-04-16T14:54:33.544Z,93.8029
2023-04-16T14:55:34.383Z,93.5995
2023-04-16T14:56:35.405Z,93.7508
2023-04-16T14:57:36.239Z,93.6339
2023-04-16T14:58:38.647Z,93.4734
2023-04-16T14:59:40.689Z,93.7358
2023-04-16T15:00:41.561Z,94.1335
2023-04-16T15:01:42.397Z,93.4647
2023-04-16T15:02:43.371Z,93.2180
2023-04-16T15:03:45.732Z,93.7626
2023-04-16T15:04:47.842Z,93.4988
2023-04-16T15:05:49.702Z,93.5398
2023-04-16T15:06:55.515Z,93.5018
